Time;durP1;ratioP1;P1;durP2;ratioP2;P2;SDS_P1;SDS_P2;PMS_P1;PMS_P2;Temp;Humidity;BMP_temperature;BMP_pressure;BME280_temperature;BME280_humidity;BME280_pressure;Samples;Min_cycle;Max_cycle;Signal;HPM_P1;HPM_P2
2022/10/18 00:03:38;;;;;;;9.30;7.10;;;19.10;57.60;;;18.44;56.32;102063.94;12253635;19;20078;-85
2022/10/18 00:07:39;;;;;;;7.90;6.53;;;19.20;57.60;;;18.45;56.46;102071.78;12248848;19;20350;-85
2022/10/18 00:11:41;;;;;;;12.57;7.00;;;19.10;58.00;;;18.26;56.11;102039.59;12255252;19;20026;-85
2022/10/18 00:15:52;;;;;;;10.02;7.68;;;19.10;57.70;;;18.39;56.29;102066.91;12251576;19;20015;-85
2022/10/18 00:19:53;;;;;;;8.40;6.70;;;19.10;57.70;;;18.33;56.21;102052.31;12251622;19;20010;-85
2022/10/18 00:23:55;;;;;;;11.32;6.88;;;19.10;57.90;;;18.39;56.22;102068.69;12250131;19;20014;-84
2022/10/18 00:27:57;;;;;;;7.45;6.72;;;19.20;57.90;;;18.46;56.24;102085.84;12247929;19;20007;-84
2022/10/18 00:31:58;;;;;;;9.18;6.65;;;19.10;57.80;;;18.19;56.37;102035.66;12252166;19;20018;-84
2022/10/18 00:36:00;;;;;;;8.32;6.88;;;19.20;57.80;;;18.46;56.73;102081.41;12248746;19;20014;-84
2022/10/18 00:40:05;;;;;;;7.75;6.63;;;19.10;57.80;;;18.28;56.66;102054.41;12252014;19;20075;-85
2022/10/18 00:44:26;;;;;;;7.75;6.72;;;19.10;57.80;;;18.42;56.55;102092.31;12247348;19;20007;-85
2022/10/18 00:48:28;;;;;;;7.88;7.07;;;19.20;57.90;;;18.37;56.84;102081.19;12254365;19;20021;-85
2022/10/18 00:52:46;;;;;;;7.70;6.93;;;19.10;57.90;;;18.36;56.61;102082.97;12246439;19;20078;-86
2022/10/18 00:56:48;;;;;;;11.45;7.85;;;19.20;58.10;;;18.39;56.64;102088.06;12249231;19;20019;-85
2022/10/18 01:00:50;;;;;;;7.97;7.18;;;19.10;58.10;;;18.43;56.82;102086.06;12250119;19;20040;-85
2022/10/18 01:04:52;;;;;;;8.73;7.68;;;19.10;58.10;;;18.25;56.89;102065.16;12254230;19;20025;-85
2022/10/18 01:09:05;;;;;;;8.55;6.70;;;19.10;58.20;;;18.39;56.75;102090.72;12254748;19;20417;-85
2022/10/18 01:14:07;;;;;;;7.68;6.35;;;19.10;58.00;;;18.35;56.92;102092.69;12249523;19;20512;-84
2022/10/18 01:18:27;;;;;;;10.45;6.60;;;19.10;58.00;;;18.36;56.85;102096.19;12251870;19;20014;-85
2022/10/18 01:22:46;;;;;;;7.25;6.55;;;19.10;58.00;;;18.36;56.87;102096.19;12246996;19;20045;-85
2022/10/18 01:27:30;;;;;;;8.80;7.18;;;19.10;58.30;;;18.32;56.90;102090.25;12248649;19;20376;-85
2022/10/18 01:32:29;;;;;;;8.82;6.75;;;19.10;58.20;;;18.26;57.03;102092.47;12245786;19;20013;-85
2022/10/18 01:36:42;;;;;;;6.70;6.03;;;19.10;58.00;;;18.31;56.90;102095.66;12246416;19;20054;-85
2022/10/18 01:40:48;;;;;;;8.18;6.68;;;19.10;58.20;;;18.20;56.96;102067.28;12251678;19;20023;-86
2022/10/18 01:44:51;;;;;;;;;;;19.00;58.30;;;18.28;56.80;102079.97;12253529;19;20517;-85
2022/10/18 01:48:55;;;;;;;6.47;5.38;;;19.30;57.90;;;18.25;57.05;102067.81;12252379;19;19932;-86
2022/10/18 01:52:57;;;;;;;7.90;6.38;;;19.20;58.30;;;18.29;56.85;102079.03;12253283;19;20031;-85
2022/10/18 01:57:31;;;;;;;7.15;6.00;;;19.00;58.30;;;18.32;56.96;102081.47;12250872;19;20009;-85
2022/10/18 02:02:11;;;;;;;8.63;6.35;;;19.10;58.40;;;18.24;57.31;102073.22;12251142;19;20090;-86
2022/10/18 02:06:34;;;;;;;7.68;6.78;;;19.10;58.50;;;18.22;57.13;102065.38;12248511;19;20426;-85
2022/10/18 02:10:48;;;;;;;9.25;6.65;;;19.20;58.60;;;18.35;57.32;102090.06;12251204;19;20018;-86
2022/10/18 02:14:51;;;;;;;6.85;5.80;;;19.10;58.60;;;18.31;57.09;102079.81;12248780;19;20498;-84
2022/10/18 02:19:24;;;;;;;7.90;6.38;;;19.10;58.60;;;18.36;57.40;102085.59;12245188;19;20360;-85
2022/10/18 02:23:26;;;;;;;7.95;5.93;;;19.10;58.90;;;18.32;57.31;102078.84;12247038;19;20039;-84
2022/10/18 02:27:28;;;;;;;6.72;6.13;;;19.10;58.70;;;18.43;57.46;102094.84;12241727;19;20270;-84
2022/10/18 02:31:36;;;;;;;7.25;6.18;;;19.20;58.80;;;18.43;57.67;102086.06;12250725;19;20389;-85
2022/10/18 02:35:45;;;;;;;9.07;6.45;;;19.20;58.70;;;18.40;57.32;102087.09;12247501;19;20022;-85
2022/10/18 02:39:50;;;;;;;6.53;5.90;;;19.20;58.70;;;18.45;57.48;102085.00;12250784;19;20082;-85
2022/10/18 02:43:52;;;;;;;6.50;5.57;;;19.20;58.80;;;18.48;57.35;102098.03;12252050;19;20019;-84
2022/10/18 02:47:54;;;;;;;6.80;5.68;;;19.20;58.80;;;18.41;57.45;102086.16;12258691;19;20014;-85
2022/10/18 02:51:56;;;;;;;6.78;6.03;;;19.20;58.70;;;18.46;57.59;102094.63;12260992;19;20035;-85
2022/10/18 02:55:58;;;;;;;6.43;5.72;;;19.20;58.90;;;18.48;57.54;102092.75;12258916;19;20074;-85
2022/10/18 02:59:59;;;;;;;6.22;5.63;;;19.30;59.10;;;18.52;57.84;102099.53;12258646;19;20510;-85
2022/10/18 03:04:03;;;;;;;6.38;5.50;;;19.30;59.00;;;18.56;57.88;102111.59;12258908;19;20264;-85
2022/10/18 03:08:04;;;;;;;12.07;5.55;;;19.40;59.30;;;18.56;57.62;102116.03;12252347;19;20042;-84
2022/10/18 03:12:06;;;;;;;7.90;5.78;;;19.30;59.50;;;18.56;57.98;102101.00;12254586;19;20413;-84
2022/10/18 03:16:08;;;;;;;8.60;6.13;;;19.50;60.10;;;18.55;58.08;102088.75;12253557;19;20014;-85
2022/10/18 03:20:10;;;;;;;6.45;5.78;;;19.30;59.90;;;18.66;58.24;102129.47;12249894;19;20174;-85
2022/10/18 03:24:12;;;;;;;6.07;5.20;;;19.40;60.00;;;18.67;58.32;102121.47;12254358;19;20011;-84
2022/10/18 03:28:14;;;;;;;6.97;5.55;;;19.40;60.50;;;18.58;58.12;102099.13;12259976;19;20476;-83
2022/10/18 03:32:15;;;;;;;5.57;4.93;;;19.40;60.90;;;18.68;58.23;102114.34;12257121;19;20010;-83
2022/10/18 03:36:17;;;;;;;5.72;5.15;;;19.50;60.70;;;18.66;58.23;102106.53;12253396;19;20531;-83
2022/10/18 03:40:19;;;;;;;6.40;4.90;;;19.70;61.30;;;18.69;58.49;102111.63;12253196;19;20047;-84
2022/10/18 03:44:21;;;;;;;5.30;4.65;;;19.50;61.00;;;18.73;58.39;102107.81;12257543;19;20010;-84
2022/10/18 03:48:23;;;;;;;5.65;5.13;;;19.80;61.90;;;18.81;58.66;102123.19;12252911;19;20015;-83
2022/10/18 03:52:25;;;;;;;5.13;4.63;;;19.60;61.30;;;18.86;58.70;102130.84;12257764;19;20403;-84
2022/10/18 03:56:26;;;;;;;6.60;4.57;;;19.60;61.30;;;18.84;58.63;102122.16;12254737;19;20043;-83
2022/10/18 04:00:28;;;;;;;5.82;4.65;;;19.70;61.30;;;18.78;58.43;102107.53;12252466;19;20464;-83
2022/10/18 04:04:30;;;;;;;5.97;5.35;;;19.70;61.80;;;18.88;58.88;102121.84;12251407;19;20044;-83
2022/10/18 04:08:32;;;;;;;5.75;5.10;;;19.70;62.00;;;18.88;58.85;102116.56;12259215;19;20053;-83
2022/10/18 04:12:33;;;;;;;5.18;4.72;;;19.70;62.00;;;18.93;58.89;102138.25;12259875;19;20074;-83
2022/10/18 04:16:35;;;;;;;4.65;4.25;;;19.70;61.50;;;18.90;58.96;102124.38;12251411;19;20406;-84
2022/10/18 04:20:37;;;;;;;4.97;4.38;;;19.80;61.70;;;18.90;58.98;102138.47;12255007;19;20344;-84
2022/10/18 04:24:39;;;;;;;5.90;4.57;;;19.90;61.50;;;18.88;58.83;102121.00;12253918;19;20048;-84
2022/10/18 04:28:40;;;;;;;5.15;4.47;;;19.80;61.40;;;18.96;58.68;102138.06;12252242;19;20074;-84
2022/10/18 04:32:42;;;;;;;5.32;4.30;;;20.00;61.90;;;18.98;59.04;102145.88;12251515;19;20018;-85
2022/10/18 04:36:43;;;;;;;6.18;4.80;;;19.80;61.60;;;18.99;58.78;102139.66;12251825;19;20021;-85
2022/10/18 04:40:45;;;;;;;5.10;4.68;;;19.80;61.90;;;18.97;58.99;102131.78;12256160;19;20010;-85
2022/10/18 04:44:47;;;;;;;5.05;4.55;;;19.80;62.10;;;18.79;59.05;102095.97;12252507;19;20567;-85
2022/10/18 04:48:49;;;;;;;5.03;4.00;;;19.80;62.20;;;18.97;58.96;102125.66;12255895;19;20010;-85
2022/10/18 04:52:52;;;;;;;7.28;4.43;;;19.80;61.50;;;18.91;58.88;102113.69;12254115;19;20018;-85
2022/10/18 04:56:54;;;;;;;4.53;4.13;;;19.90;61.70;;;18.96;58.96;102116.03;12247577;19;20002;-85
2022/10/18 05:00:55;;;;;;;4.53;3.97;;;19.80;62.10;;;18.93;59.27;102097.69;12242712;19;20011;-85
2022/10/18 05:04:57;;;;;;;4.72;4.32;;;19.80;61.70;;;18.99;59.21;102111.38;12255255;19;20014;-84
2022/10/18 05:09:01;;;;;;;7.22;4.32;;;19.80;61.70;;;18.95;59.38;102112.50;12252492;19;20018;-85
2022/10/18 05:13:04;;;;;;;4.00;3.70;;;19.70;61.70;;;18.95;59.20;102125.75;12252881;19;20018;-84
2022/10/18 05:17:05;;;;;;;5.93;4.70;;;19.70;61.70;;;18.99;59.03;102132.53;12250538;19;20380;-84
2022/10/18 05:21:07;;;;;;;5.10;4.18;;;19.90;62.20;;;18.93;59.46;102118.84;12250921;19;20019;-85
2022/10/18 05:25:09;;;;;;;5.07;4.57;;;19.90;62.40;;;18.91;59.31;102110.19;12252577;19;20514;-85
2022/10/18 05:29:11;;;;;;;5.63;4.40;;;19.90;61.70;;;18.90;59.16;102087.31;12252148;19;20014;-84
2022/10/18 05:33:12;;;;;;;7.70;4.35;;;19.80;62.30;;;18.94;59.31;102102.88;12250417;19;20022;-86
2022/10/18 05:37:14;;;;;;;6.15;4.78;;;19.70;61.90;;;18.88;59.27;102084.78;12247527;19;20044;-86
2022/10/18 05:41:16;;;;;;;5.07;4.32;;;19.80;62.20;;;19.00;59.17;102110.41;12249674;19;20507;-85
2022/10/18 05:45:18;;;;;;;5.57;4.68;;;19.70;62.10;;;18.99;59.47;102098.13;12250286;19;20018;-86
2022/10/18 05:49:20;;;;;;;5.47;4.97;;;19.70;62.10;;;18.91;59.56;102097.81;12250293;19;20025;-87
2022/10/18 05:53:21;;;;;;;4.90;4.38;;;19.70;61.80;;;19.00;59.20;102114.84;12245149;19;20363;-86
2022/10/18 05:57:23;;;;;;;4.57;4.18;;;19.80;62.00;;;18.97;59.36;102123.00;12242614;19;20034;-87
2022/10/18 06:01:25;;;;;;;4.93;4.40;;;19.70;61.90;;;18.71;59.55;102099.16;12241148;19;20121;-86
2022/10/18 06:05:26;;;;;;;4.82;4.32;;;19.70;61.90;;;18.85;59.43;102123.84;12245069;19;20096;-86
2022/10/18 06:09:29;;;;;;;4.60;4.20;;;19.70;62.10;;;18.96;59.72;102156.59;12248244;19;20014;-86
2022/10/18 06:13:31;;;;;;;4.55;4.15;;;19.70;62.20;;;18.97;59.53;102157.44;12248435;19;20018;-87
2022/10/18 06:17:33;;;;;;;5.15;4.38;;;19.80;62.50;;;18.83;59.63;102131.91;12243249;19;20078;-86
2022/10/18 06:21:37;;;;;;;4.83;4.43;;;19.70;62.70;;;18.98;59.52;102140.56;12244692;19;20025;-88
2022/10/18 06:25:39;;;;;;;6.97;5.10;;;19.70;62.70;;;18.84;59.82;102112.41;12243267;19;20061;-86
2022/10/18 06:29:41;;;;;;;5.50;4.88;;;19.70;62.90;;;18.97;59.68;102125.66;12246352;19;20006;-86
2022/10/18 06:33:44;;;;;;;4.65;4.25;;;19.80;63.20;;;18.60;59.69;102054.00;12248869;19;20014;-86
2022/10/18 06:37:46;;;;;;;6.20;4.82;;;19.90;63.10;;;18.94;59.56;102110.81;12242803;19;20020;-87
2022/10/18 06:41:48;;;;;;;5.63;4.47;;;19.70;63.10;;;18.87;59.51;102098.09;12241374;19;20007;-86
2022/10/18 06:45:56;;;;;;;5.13;4.40;;;19.70;62.80;;;18.95;59.73;102123.09;12246558;19;20014;-87
2022/10/18 06:49:58;;;;;;;5.40;4.10;;;19.80;63.00;;;18.90;60.00;102122.59;12245921;19;20014;-88
2022/10/18 06:54:00;;;;;;;5.65;4.93;;;19.70;63.00;;;18.89;59.79;102115.59;12244787;19;20025;-87
2022/10/18 06:58:01;;;;;;;5.13;4.63;;;19.70;63.60;;;18.95;59.81;102125.75;12242328;19;20031;-88
2022/10/18 07:02:03;;;;;;;4.40;3.88;;;19.90;63.80;;;18.99;59.95;102134.34;12240998;19;20035;-87
2022/10/18 07:06:08;;;;;;;4.28;3.90;;;19.80;63.60;;;18.85;60.01;102110.59;12244745;19;20023;-89
2022/10/18 07:10:10;;;;;;;5.70;4.57;;;19.70;63.30;;;18.98;59.81;102122.91;12245587;19;20078;-87
2022/10/18 07:14:12;;;;;;;5.30;4.50;;;19.70;63.20;;;18.68;60.04;102072.88;12243173;19;20018;-87
2022/10/18 07:18:13;;;;;;;5.55;4.43;;;19.70;63.70;;;18.86;60.09;102107.00;12257969;19;20074;-86
2022/10/18 07:22:15;;;;;;;5.95;4.13;;;19.70;63.70;;;18.89;60.11;102110.28;12253288;19;20022;-87
2022/10/18 07:26:28;;;;;;;5.72;4.90;;;19.70;63.80;;;19.00;60.14;102136.03;12256349;19;20018;-87
2022/10/18 07:30:30;;;;;;;4.82;4.32;;;19.80;64.60;;;18.95;59.91;102138.97;12259411;19;20003;-86
2022/10/18 07:34:31;;;;;;;6.00;4.40;;;19.70;64.00;;;19.08;60.08;102160.19;12260304;19;20043;-87
2022/10/18 07:38:34;;;;;;;5.97;4.75;;;19.90;64.10;;;18.99;60.16;102147.59;12259402;19;20026;-87
2022/10/18 07:42:37;;;;;;;8.02;4.32;;;19.80;63.90;;;19.01;60.21;102159.78;12251280;19;20484;-85
2022/10/18 07:46:38;;;;;;;5.63;5.05;;;19.80;64.30;;;19.09;60.17;102174.28;12253590;19;20018;-88
2022/10/18 07:50:39;;;;;;;6.97;5.35;;;19.80;64.20;;;19.10;60.18;102179.47;12255929;19;20384;-86
2022/10/18 07:54:41;;;;;;;5.93;5.18;;;19.90;64.40;;;18.71;60.33;102119.44;12254040;19;20014;-86
2022/10/18 07:58:45;;;;;;;5.45;4.78;;;20.10;64.50;;;19.12;60.30;102185.53;12252136;19;20010;-86
2022/10/18 08:02:46;;;;;;;6.10;5.03;;;19.90;64.50;;;19.11;60.27;102182.97;12249800;19;20105;-86
2022/10/18 08:06:47;;;;;;;4.97;4.47;;;19.90;64.70;;;19.21;60.53;102194.63;12251808;19;20078;-86
2022/10/18 08:10:50;;;;;;;5.78;4.85;;;20.20;65.00;;;19.22;60.24;102189.22;12254747;19;20112;-86
2022/10/18 08:14:51;;;;;;;6.72;4.43;;;20.00;65.00;;;19.21;60.39;102181.38;12253051;19;20014;-86
2022/10/18 08:18:56;;;;;;;4.72;4.32;;;20.00;64.90;;;19.18;60.74;102165.72;12251104;19;20020;-86
2022/10/18 08:22:57;;;;;;;5.72;4.63;;;20.00;64.50;;;19.26;60.53;102168.69;12249459;19;20010;-86
2022/10/18 08:26:59;;;;;;;5.13;4.63;;;20.30;65.20;;;19.02;60.69;102123.53;12249132;19;20013;-86
2022/10/18 08:31:06;;;;;;;6.32;4.82;;;20.10;65.10;;;18.85;60.59;102085.00;12254144;19;20360;-87
2022/10/18 08:35:08;;;;;;;5.07;4.38;;;20.10;65.40;;;19.18;60.82;102139.22;12252257;19;20006;-90
2022/10/18 08:39:12;;;;;;;5.13;4.17;;;20.10;65.30;;;18.90;60.60;102087.31;12252019;19;20007;-85
2022/10/18 08:43:22;;;;;;;6.35;4.22;;;20.10;65.10;;;19.39;60.53;102166.03;12250024;19;20085;-87
2022/10/18 08:47:36;;;;;;;6.00;4.82;;;20.20;65.10;;;19.37;60.81;102154.69;12248984;19;20035;-85
2022/10/18 08:51:45;;;;;;;7.03;5.03;;;20.40;65.30;;;19.34;60.74;102145.16;12251180;19;20096;-85
2022/10/18 08:55:54;;;;;;;4.93;4.47;;;20.20;65.20;;;19.30;60.89;102141.00;12255306;19;20003;-86
2022/10/18 08:59:55;;;;;;;5.30;4.68;;;20.20;65.20;;;19.39;60.84;102166.88;12250316;19;20342;-86
2022/10/18 09:04:24;;;;;;;5.28;4.82;;;20.20;65.10;;;19.36;60.61;102164.44;12253041;19;20050;-85
2022/10/18 09:08:39;;;;;;;4.93;4.47;;;20.20;65.60;;;19.50;61.10;102167.94;12250873;19;20014;-85
2022/10/18 09:13:31;;;;;;;5.32;4.80;;;20.30;65.20;;;19.47;60.99;102166.34;12252435;19;20025;-84
2022/10/18 09:17:50;;;;;;;4.63;4.10;;;20.30;65.10;;;19.42;60.77;102161.38;12248478;19;20014;-84
2022/10/18 09:21:57;;;;;;;3.60;3.30;;;20.30;65.10;;;19.39;61.08;102153.63;12245642;19;20078;-85
2022/10/18 09:26:37;;;;;;;3.33;3.03;;;20.30;64.80;;;19.46;60.92;102164.63;12245937;19;20014;-84
2022/10/18 09:30:55;;;;;;;3.38;2.42;;;20.30;64.70;;;19.47;60.69;102166.34;12249811;19;20022;-84
2022/10/18 09:35:05;;;;;;;5.88;3.15;;;20.30;64.50;;;19.45;61.12;102165.59;12248992;19;20043;-84
2022/10/18 09:39:24;;;;;;;4.43;2.92;;;20.30;64.40;;;19.43;61.10;102159.56;12247565;19;20011;-84
2022/10/18 09:43:59;;;;;;;2.70;2.50;;;20.20;64.50;;;19.42;60.84;102158.72;12247199;19;20014;-85
2022/10/18 09:48:54;;;;;;;4.28;3.15;;;20.20;64.50;;;19.44;60.70;102167.41;12246849;19;20010;-85
2022/10/18 09:53:12;;;;;;;2.47;2.28;;;20.20;64.50;;;19.40;60.68;102163.25;12241056;19;20369;-85
2022/10/18 09:57:41;;;;;;;2.67;2.40;;;20.20;64.50;;;19.39;60.98;102158.94;12244165;19;20469;-85
2022/10/18 10:01:43;;;;;;;3.25;2.75;;;20.20;64.50;;;19.46;60.96;102170.78;12238831;19;20018;-85
2022/10/18 10:05:44;;;;;;;2.55;2.35;;;20.40;64.50;;;19.44;60.80;102178.00;12241012;19;20010;-86
2022/10/18 10:10:03;;;;;;;2.83;2.50;;;20.20;64.50;;;19.35;60.75;102162.72;12241981;19;20032;-86
2022/10/18 10:18:21;;;;;;;2.45;2.15;;;20.20;64.50;;;19.44;60.78;102185.09;12248439;19;20016;-86
2022/10/18 10:22:38;;;;;;;2.28;2.08;;;20.20;64.60;;;19.37;61.04;102174.09;12242083;19;20046;-86
2022/10/18 10:26:40;;;;;;;3.58;2.42;;;20.20;64.30;;;19.22;60.78;102148.63;12240343;19;20014;-87
2022/10/18 10:30:41;;;;;;;2.58;2.08;;;20.20;64.50;;;19.41;60.80;102178.19;12241200;19;20024;-89
2022/10/18 10:34:43;;;;;;;3.30;2.38;;;20.10;64.40;;;19.35;60.97;102168.03;12243215;19;20391;-88
2022/10/18 10:39:00;;;;;;;3.25;2.55;;;20.20;64.60;;;19.32;60.88;102159.47;12244213;19;20044;-89
2022/10/18 10:43:16;;;;;;;1.70;1.60;;;20.20;64.40;;;19.31;60.93;102155.09;12241411;19;20014;-89
2022/10/18 10:47:35;;;;;;;2.03;1.70;;;20.10;64.20;;;19.30;61.02;102170.16;12240335;19;20023;-88
2022/10/18 10:51:38;;;;;;;1.60;1.50;;;20.10;64.30;;;19.07;61.11;102125.88;12257707;19;20007;-87
2022/10/18 10:55:41;;;;;;;2.05;1.33;;;20.10;64.30;;;19.31;61.19;102149.78;12256259;19;20039;-88
2022/10/18 10:59:52;;;;;;;2.92;1.77;;;20.30;64.50;;;19.37;60.85;102160.84;12257207;19;20015;-88
2022/10/18 11:03:58;;;;;;;2.30;1.50;;;20.10;64.30;;;18.99;61.13;102097.28;12257482;19;20023;-87
2022/10/18 11:08:03;;;;;;;3.25;1.50;;;20.10;64.40;;;19.20;60.89;102121.44;12256947;19;20028;-88
2022/10/18 11:12:36;;;;;;;1.73;1.60;;;20.10;64.30;;;19.33;61.30;102130.19;12256203;19;20014;-87
2022/10/18 11:17:09;;;;;;;1.73;1.63;;;20.10;64.40;;;19.30;61.25;102119.81;12245659;19;20093;-88
2022/10/18 11:21:35;;;;;;;1.92;1.52;;;20.10;64.30;;;19.30;61.30;102111.03;12251586;19;20014;-87
2022/10/18 11:25:42;;;;;;;2.15;1.60;;;20.10;64.30;;;19.34;61.12;102096.63;12255881;19;20021;-87
2022/10/18 11:30:03;;;;;;;2.40;2.03;;;20.10;64.60;;;19.34;61.09;102109.88;12254646;19;20018;-88
2022/10/18 11:34:34;;;;;;;3.45;2.10;;;20.10;65.40;;;19.28;61.22;102107.63;12255304;19;20036;-89
2022/10/18 11:39:07;;;;;;;4.65;2.30;;;20.10;64.80;;;19.19;61.31;102103.84;12255978;19;20006;-88
2022/10/18 11:43:32;;;;;;;2.40;1.90;;;20.00;64.80;;;19.22;61.35;102109.75;12248051;19;20069;-88
2022/10/18 11:48:00;;;;;;;1.80;1.70;;;20.00;64.90;;;19.29;60.97;102115.50;12249444;19;20080;-90
2022/10/18 11:52:33;;;;;;;2.38;1.92;;;20.00;65.10;;;19.29;61.36;102114.66;12251037;19;20018;-90
2022/10/18 11:56:55;;;;;;;1.88;1.73;;;20.00;65.20;;;19.25;61.26;102103.41;12248723;19;20011;-88
2022/10/18 12:01:52;;;;;;;1.67;1.58;;;20.00;65.40;;;19.24;61.66;102107.00;12253046;19;20043;-86
2022/10/18 12:05:56;;;;;;;;;;;20.10;65.40;;;19.17;61.34;102090.72;12252947;19;20104;-86
2022/10/18 12:10:00;;;;;;;1.88;1.45;;;20.00;64.50;;;19.29;61.15;102102.25;12254942;19;19926;-85
2022/10/18 12:14:12;;;;;;;1.92;1.73;;;20.00;65.40;;;19.32;61.22;102102.03;12252247;19;20023;-87
2022/10/18 12:18:19;;;;;;;1.80;1.70;;;20.10;65.70;;;19.28;61.38;102092.63;12251939;19;20456;-85
2022/10/18 12:22:41;;;;;;;1.67;1.55;;;20.00;65.80;;;19.34;61.45;102107.22;12250715;19;20022;-86
2022/10/18 12:26:47;;;;;;;2.63;1.75;;;20.20;66.20;;;19.37;61.47;102099.91;12250783;19;20022;-87
2022/10/18 12:31:27;;;;;;;1.83;1.73;;;20.10;66.20;;;19.27;61.48;102077.66;12252983;19;20070;-87
2022/10/18 12:35:38;;;;;;;2.08;1.92;;;20.10;66.20;;;19.39;61.66;102087.41;12249977;19;20026;-87
2022/10/18 12:39:52;;;;;;;2.50;2.25;;;20.30;66.20;;;19.40;61.69;102090.91;12251615;19;20022;-86
2022/10/18 12:44:05;;;;;;;2.55;2.35;;;20.10;66.10;;;19.30;61.50;102073.94;12255410;19;20049;-86
2022/10/18 12:48:24;;;;;;;2.47;2.08;;;20.10;66.10;;;19.42;61.57;102078.41;12247250;19;20014;-86
2022/10/18 12:52:32;;;;;;;2.45;2.25;;;20.20;66.10;;;18.94;61.66;102010.22;12250926;19;20464;-86
2022/10/18 12:56:46;;;;;;;2.63;2.42;;;20.20;66.30;;;19.07;61.49;102019.97;12250636;19;20017;-86
2022/10/18 13:00:48;;;;;;;2.65;2.45;;;20.40;66.70;;;19.48;61.65;102074.47;12251718;19;20007;-86
2022/10/18 13:04:49;;;;;;;2.47;2.25;;;20.20;66.70;;;19.12;61.54;102018.69;12250441;19;20541;-86
2022/10/18 13:09:20;;;;;;;2.85;2.28;;;20.20;66.50;;;19.34;61.85;102059.53;12249903;19;20018;-87
2022/10/18 13:13:57;;;;;;;2.13;2.03;;;20.30;66.40;;;19.46;61.47;102072.75;12247772;19;20022;-87
2022/10/18 13:18:25;;;;;;;1.92;1.80;;;20.10;66.00;;;19.39;61.84;102060.91;12247604;19;20039;-85
2022/10/18 13:23:31;;;;;;;2.22;2.13;;;20.20;66.20;;;19.45;61.92;102073.72;12248190;19;20026;-85
2022/10/18 13:28:20;;;;;;;2.58;1.90;;;20.20;66.20;;;19.43;61.82;102088.88;12246175;19;20015;-85
2022/10/18 13:32:46;;;;;;;2.88;2.60;;;20.20;66.20;;;19.26;61.81;102046.00;12246154;19;20369;-85
2022/10/18 13:37:07;;;;;;;2.17;1.98;;;20.40;66.30;;;19.47;61.76;102081.56;12243293;19;20489;-85
2022/10/18 13:41:25;;;;;;;2.60;2.40;;;20.30;66.40;;;19.41;61.90;102082.81;12245106;19;20018;-86
2022/10/18 13:45:30;;;;;;;4.72;2.50;;;20.20;66.50;;;19.51;61.79;102087.47;12243840;19;20029;-85
2022/10/18 13:49:37;;;;;;;2.07;1.97;;;20.20;66.70;;;19.49;61.90;102087.56;12247866;19;20540;-85
2022/10/18 13:54:07;;;;;;;2.40;2.00;;;20.20;66.80;;;19.28;61.79;102055.53;12241917;19;20018;-85
2022/10/18 13:58:29;;;;;;;2.17;1.98;;;20.20;66.70;;;19.50;61.89;102080.50;12245824;19;20018;-85
2022/10/18 14:03:09;;;;;;;2.40;2.20;;;20.30;66.90;;;19.40;61.80;102065.25;12246732;19;20086;-84
2022/10/18 14:07:11;;;;;;;2.78;2.50;;;20.30;66.80;;;19.46;61.99;102067.44;12241053;19;20018;-85
2022/10/18 14:11:36;;;;;;;2.92;2.00;;;20.30;67.70;;;19.57;61.95;102095.00;12244595;19;20519;-85
2022/10/18 14:15:42;;;;;;;2.50;2.30;;;20.30;67.20;;;19.48;61.79;102071.81;11988506;19;5011239;-84
2022/10/18 14:20:12;;;;;;;2.42;2.22;;;20.50;67.40;;;19.40;61.81;102054.66;12242001;19;20019;-85
2022/10/18 14:24:22;;;;;;;2.60;2.40;;;20.40;67.30;;;19.64;61.88;102094.44;12248682;19;20014;-85
2022/10/18 14:28:24;;;;;;;2.60;2.40;;;20.40;67.00;;;19.62;62.13;102090.22;12254718;19;20408;-84
2022/10/18 14:32:30;;;;;;;2.80;2.55;;;20.40;67.00;;;19.48;62.01;102066.50;12257028;19;20021;-84
2022/10/18 14:36:44;;;;;;;2.50;2.30;;;20.40;66.70;;;19.60;62.13;102108.84;12251745;19;20026;-85
2022/10/18 14:40:46;;;;;;;2.90;2.45;;;20.40;66.70;;;19.43;62.03;102086.22;12257036;19;20014;-84
2022/10/18 14:44:49;;;;;;;2.70;2.50;;;20.50;66.60;;;19.48;61.92;102101.78;12257688;19;20350;-85
2022/10/18 14:48:59;;;;;;;2.95;2.47;;;20.30;66.40;;;19.49;62.10;102105.28;12257617;19;20034;-84
2022/10/18 14:53:15;;;;;;;3.13;2.60;;;20.30;66.20;;;19.54;62.11;102117.25;12256742;19;20010;-85
2022/10/18 14:57:36;;;;;;;3.15;2.92;;;20.30;66.20;;;19.46;62.06;102101.88;12251109;19;20011;-84
2022/10/18 15:01:38;;;;;;;3.10;2.80;;;20.30;66.20;;;19.43;62.27;102096.81;12255143;19;20018;-87
2022/10/18 15:05:53;;;;;;;3.15;2.90;;;20.30;65.90;;;19.45;61.89;102118.75;12252032;19;20030;-85
2022/10/18 15:09:58;;;;;;;3.67;3.08;;;20.20;66.00;;;19.48;62.07;102114.19;12258745;19;20015;-86
2022/10/18 15:14:10;;;;;;;3.15;2.85;;;20.20;66.10;;;19.36;62.02;102082.31;12254892;19;20035;-84
2022/10/18 15:18:26;;;;;;;3.55;2.83;;;20.20;66.20;;;19.38;62.22;102093.63;12255838;19;20488;-84
2022/10/18 15:22:30;;;;;;;3.20;2.90;;;20.20;65.90;;;19.44;62.27;102092.34;12255160;19;20069;-86
2022/10/18 15:26:32;;;;;;;7.28;3.00;;;20.20;65.70;;;19.36;61.80;102082.31;12255404;19;20042;-86
2022/10/18 15:30:43;;;;;;;3.00;2.80;;;20.20;65.60;;;19.38;62.17;102096.28;12249996;19;20048;-86
2022/10/18 15:34:45;;;;;;;3.70;3.40;;;20.30;65.50;;;19.34;62.12;102091.34;12252964;19;20028;-86
2022/10/18 15:38:46;;;;;;;4.07;3.58;;;20.20;65.30;;;19.11;61.92;102061.16;12253892;19;20097;-86
2022/10/18 15:42:51;;;;;;;4.90;3.40;;;20.40;65.20;;;19.34;61.92;102091.34;12251295;19;20022;-88
2022/10/18 15:47:08;;;;;;;3.47;3.17;;;20.30;64.90;;;19.35;61.95;102104.44;12248153;19;20018;-87
2022/10/18 15:51:47;;;;;;;4.18;3.17;;;20.10;64.60;;;19.30;62.05;102111.88;12254801;19;20007;-86
2022/10/18 16:15:20;;;;;;;4.63;4.22;;;19.90;64.10;;;18.76;61.57;102072.38;12249255;19;20027;-87
2022/10/18 16:25:21;;;;;;;3.50;3.22;;;19.80;64.10;;;18.46;61.57;102030.31;12241447;19;20544;-87
2022/10/18 16:29:37;;;;;;;4.82;4.38;;;19.60;63.80;;;18.78;61.75;102104.88;12252362;19;20013;-87
2022/10/18 16:33:40;;;;;;;4.55;4.20;;;19.80;64.10;;;18.67;61.48;102084.41;12250812;19;20019;-85
2022/10/18 16:43:10;;;;;;;6.20;4.47;;;19.80;63.60;;;18.20;61.35;102047.91;12242757;19;20054;-86
2022/10/18 16:47:28;;;;;;;4.65;4.28;;;19.50;63.40;;;18.43;61.38;102097.47;12249003;19;20017;-86
2022/10/18 16:58:21;;;;;;;5.25;4.63;;;19.50;62.90;;;18.63;61.80;102162.28;12242309;19;20015;-86
2022/10/18 17:08:29;;;;;;;4.78;4.30;;;19.20;62.30;;;18.23;61.38;102122.59;12237354;19;20432;-86
2022/10/18 17:13:04;;;;;;;5.05;4.55;;;19.30;62.40;;;18.11;61.51;102103.09;12248052;19;20478;-86
2022/10/18 17:17:26;;;;;;;5.07;4.63;;;19.30;62.30;;;18.03;61.51;102101.91;12248227;19;20468;-87
2022/10/18 17:21:40;;;;;;;5.27;4.70;;;19.10;61.80;;;17.87;61.57;102078.25;12245643;19;20066;-86
2022/10/18 17:26:02;;;;;;;5.20;4.78;;;19.10;61.90;;;18.10;61.49;102134.94;12246289;19;20018;-86
2022/10/18 17:30:18;;;;;;;5.47;4.97;;;19.00;61.80;;;17.87;61.21;102109.94;12251010;19;20006;-86
2022/10/18 17:34:27;;;;;;;5.93;5.33;;;19.00;61.60;;;18.18;61.30;102174.94;12246973;19;20022;-86
2022/10/18 17:38:32;;;;;;;6.32;5.50;;;18.90;61.60;;;17.48;61.08;102070.09;12248682;19;20284;-86
2022/10/18 17:42:34;;;;;;;6.55;5.93;;;19.00;61.80;;;17.71;61.27;102104.75;12248468;19;20030;-87
2022/10/18 17:46:36;;;;;;;7.15;6.43;;;18.80;61.50;;;17.62;61.17;102108.84;12249048;19;20022;-87
2022/10/18 17:50:40;;;;;;;7.25;6.55;;;18.80;61.80;;;17.89;61.18;102164.41;12249949;19;20019;-85
2022/10/18 17:54:42;;;;;;;6.90;6.23;;;18.70;61.70;;;17.54;61.28;102110.25;12248983;19;20014;-86
2022/10/18 17:58:51;;;;;;;6.78;6.13;;;18.70;61.70;;;17.45;61.39;102111.69;12248759;19;20031;-86